createdAt,value
2023-01-18T00:01:43.366Z,73.12
2023-01-18T00:04:09.881Z,70.82
2023-01-18T00:06:36.308Z,70.93
2023-01-18T00:09:05.019Z,68.79
2023-01-18T00:11:31.476Z,70.87
2023-01-18T00:13:57.923Z,69.94
2023-01-18T00:16:24.492Z,71.03
2023-01-18T00:18:50.935Z,72.02
2023-01-18T00:21:17.400Z,73.04
2023-01-18T00:23:43.799Z,73.78
2023-01-18T00:26:10.229Z,73.43
2023-01-18T00:28:36.655Z,73.08
2023-01-18T00:31:03.040Z,74.01
2023-01-18T00:33:29.526Z,73.94
2023-01-18T00:41:16.516Z,73.22
2023-01-18T00:43:52.751Z,74.27
2023-01-18T00:46:19.397Z,74.42
2023-01-18T00:48:45.758Z,73.84
2023-01-18T00:51:12.254Z,74.61
2023-01-18T00:53:39.827Z,74.83
2023-01-18T00:56:10.388Z,74.32
2023-01-18T00:58:37.106Z,74.67
2023-01-18T01:01:03.635Z,74.65
2023-01-18T01:03:30.000Z,72.84
2023-01-18T01:05:56.436Z,74.62
2023-01-18T01:08:24.987Z,74.39
2023-01-18T01:10:53.398Z,73.70
2023-01-18T01:13:26.336Z,73.75
2023-01-18T01:15:55.154Z,73.50
2023-01-18T01:18:30.865Z,73.95
2023-01-18T01:20:57.331Z,73.56
2023-01-18T01:23:23.833Z,72.82
2023-01-18T01:25:50.228Z,72.67
2023-01-18T01:28:16.641Z,74.00
2023-01-18T01:30:49.035Z,73.39
2023-01-18T01:33:15.778Z,73.11
2023-01-18T01:35:52.624Z,74.32
2023-01-18T01:38:19.066Z,74.69
2023-01-18T01:40:45.613Z,73.99
2023-01-18T01:43:12.093Z,74.06
2023-01-18T01:45:38.570Z,74.35
2023-01-18T01:48:05.407Z,74.58
2023-01-18T01:50:31.851Z,73.50
2023-01-18T01:55:38.763Z,73.49
2023-01-18T01:58:05.204Z,73.30
2023-01-18T02:00:31.655Z,73.02
2023-01-18T02:02:58.419Z,73.16
2023-01-18T02:05:25.318Z,72.46
2023-01-18T02:07:51.752Z,73.81
2023-01-18T02:10:18.150Z,74.03
2023-01-18T02:12:44.899Z,74.45
2023-01-18T02:15:11.396Z,74.69
2023-01-18T02:17:37.843Z,73.94
2023-01-18T02:22:44.606Z,74.08
2023-01-18T02:27:51.284Z,74.76
2023-01-18T02:30:17.762Z,74.45
2023-01-18T02:32:44.221Z,74.80
2023-01-18T02:35:10.692Z,74.32
2023-01-18T02:37:37.106Z,74.83
2023-01-18T02:40:04.776Z,74.72
2023-01-18T02:42:31.299Z,73.93
2023-01-18T02:44:59.063Z,73.11
2023-01-18T02:47:25.513Z,73.85
2023-01-18T02:49:51.914Z,73.92
2023-01-18T02:52:18.352Z,73.65
2023-01-18T02:54:44.810Z,73.77
2023-01-18T02:57:11.315Z,73.23
2023-01-18T02:59:37.843Z,73.14
2023-01-18T03:02:04.308Z,74.00
2023-01-18T03:04:30.733Z,73.25
2023-01-18T03:06:57.232Z,73.19
2023-01-18T03:09:23.800Z,73.79
2023-01-18T03:11:53.340Z,73.32
2023-01-18T03:14:22.776Z,73.35
2023-01-18T03:16:49.169Z,74.03
2023-01-18T03:19:15.637Z,73.44
2023-01-18T03:21:42.131Z,73.54
2023-01-18T03:24:08.595Z,73.67
2023-01-18T03:26:35.053Z,73.16
2023-01-18T03:29:01.627Z,73.67
2023-01-18T03:31:28.100Z,73.76
2023-01-18T03:36:34.833Z,73.42
2023-01-18T03:39:01.273Z,73.32
2023-01-18T03:41:27.742Z,73.13
2023-01-18T03:43:54.475Z,73.87
2023-01-18T03:46:23.025Z,73.52
2023-01-18T03:48:49.559Z,73.57
2023-01-18T03:51:15.997Z,73.90
2023-01-18T03:53:42.504Z,73.64
2023-01-18T03:56:09.939Z,74.04
2023-01-18T03:58:36.383Z,74.53
2023-01-18T04:01:02.908Z,73.57
2023-01-18T04:06:09.781Z,73.92
2023-01-18T04:08:36.245Z,74.28
2023-01-18T04:11:02.783Z,74.08
2023-01-18T04:13:29.235Z,74.50
2023-01-18T04:15:55.818Z,74.73
2023-01-18T04:21:05.684Z,74.60
2023-01-18T04:23:32.160Z,74.96
2023-01-18T04:25:58.689Z,74.41
2023-01-18T04:28:25.086Z,70.41
2023-01-18T04:30:51.596Z,70.91
2023-01-18T04:33:18.046Z,72.23
2023-01-18T04:35:44.508Z,72.58
2023-01-18T04:38:11.075Z,73.07
2023-01-18T04:40:37.610Z,71.99
2023-01-18T04:43:04.246Z,71.65
2023-01-18T04:45:30.734Z,71.31
2023-01-18T04:47:57.186Z,71.94
2023-01-18T04:50:23.663Z,71.70
2023-01-18T04:52:50.185Z,71.72
2023-01-18T04:55:18.047Z,71.10
2023-01-18T05:00:25.385Z,69.57
2023-01-18T05:02:54.455Z,69.03
2023-01-18T05:05:21.594Z,69.48
2023-01-18T05:07:48.799Z,69.18
2023-01-18T05:10:15.250Z,68.64
2023-01-18T05:12:41.672Z,69.42
2023-01-18T05:15:28.747Z,70.26
2023-01-18T05:17:55.207Z,68.92
2023-01-18T05:20:21.625Z,69.87
2023-01-18T05:22:48.106Z,71.31
2023-01-18T05:25:14.472Z,72.01
2023-01-18T05:27:40.886Z,72.25
2023-01-18T05:30:07.317Z,70.64
2023-01-18T05:32:33.793Z,70.26
2023-01-18T05:35:00.276Z,69.56
2023-01-18T05:37:26.780Z,69.83
2023-01-18T05:39:53.243Z,70.85
2023-01-18T05:42:19.695Z,71.01
2023-01-18T05:44:52.250Z,72.57
2023-01-18T05:47:18.766Z,73.32
2023-01-18T05:49:45.238Z,73.32
2023-01-18T05:52:11.664Z,73.22
2023-01-18T05:54:38.138Z,73.07
2023-01-18T05:57:04.873Z,72.86
2023-01-18T05:59:31.341Z,73.33
2023-01-18T06:01:57.821Z,72.98
2023-01-18T06:04:26.968Z,72.88
2023-01-18T06:06:53.434Z,73.22
2023-01-18T06:09:19.926Z,73.05
2023-01-18T06:11:46.403Z,73.91
2023-01-18T06:14:12.915Z,73.40
2023-01-18T06:16:39.406Z,73.08
2023-01-18T06:19:05.872Z,72.96
2023-01-18T06:21:32.312Z,72.27
2023-01-18T06:23:58.812Z,71.98
2023-01-18T06:26:25.337Z,71.95
2023-01-18T06:28:51.886Z,72.07
2023-01-18T06:31:18.379Z,72.01
2023-01-18T06:33:44.955Z,72.60
2023-01-18T06:36:11.407Z,73.51
2023-01-18T06:38:38.260Z,73.83
2023-01-18T06:41:10.947Z,74.19
2023-01-18T06:43:37.597Z,73.86
2023-01-18T06:46:06.955Z,73.87
2023-01-18T06:48:34.706Z,73.78
2023-01-18T06:51:01.151Z,74.10
2023-01-18T06:53:28.729Z,74.33
2023-01-18T06:55:55.781Z,73.73
2023-01-18T06:58:33.667Z,73.78
2023-01-18T07:01:00.224Z,72.87
2023-01-18T07:03:26.730Z,72.53
2023-01-18T07:05:53.169Z,72.39
2023-01-18T07:08:19.606Z,71.71
2023-01-18T07:10:46.063Z,72.42
2023-01-18T07:13:12.508Z,71.67
2023-01-18T07:15:39.117Z,72.05
2023-01-18T07:18:05.552Z,72.13
2023-01-18T07:20:32.155Z,72.03
2023-01-18T07:22:58.887Z,72.28
2023-01-18T07:25:25.641Z,72.19
2023-01-18T07:27:52.116Z,72.20
2023-01-18T07:30:18.589Z,71.75
2023-01-18T07:32:45.014Z,71.90
2023-01-18T07:35:11.500Z,72.26
2023-01-18T07:37:38.042Z,72.10
2023-01-18T07:40:04.536Z,72.10
2023-01-18T07:42:30.986Z,71.88
2023-01-18T07:44:57.413Z,72.47
2023-01-18T07:47:23.925Z,71.87
2023-01-18T07:49:50.433Z,71.54
2023-01-18T07:52:17.021Z,70.93
2023-01-18T07:54:44.516Z,71.55
2023-01-18T07:57:11.028Z,72.30
2023-01-18T07:59:43.702Z,73.49
2023-01-18T08:02:10.252Z,74.26
2023-01-18T08:04:39.544Z,74.34
2023-01-18T08:07:06.810Z,73.65
2023-01-18T08:09:33.169Z,74.04
2023-01-18T08:12:01.729Z,73.93
2023-01-18T08:14:28.105Z,72.74
2023-01-18T08:16:54.572Z,72.84
2023-01-18T08:19:24.465Z,71.37
2023-01-18T08:21:50.933Z,72.26
2023-01-18T08:24:34.009Z,72.31
2023-01-18T08:27:00.448Z,72.22
2023-01-18T08:29:26.873Z,72.86
2023-01-18T08:31:53.244Z,73.33
2023-01-18T08:34:19.639Z,72.59
2023-01-18T08:36:46.137Z,72.84
2023-01-18T08:39:12.564Z,72.97
2023-01-18T08:41:39.004Z,73.19
2023-01-18T08:44:05.486Z,73.44
2023-01-18T08:46:31.951Z,73.33
2023-01-18T08:48:58.287Z,73.05
2023-01-18T08:51:24.732Z,73.23
2023-01-18T08:53:51.210Z,73.09
2023-01-18T08:56:23.549Z,72.48
2023-01-18T08:58:49.896Z,72.56
2023-01-18T09:01:16.395Z,72.62
2023-01-18T09:03:44.984Z,72.47
2023-01-18T09:06:13.080Z,71.84
2023-01-18T09:08:39.697Z,71.70
2023-01-18T09:11:06.336Z,71.58
2023-01-18T09:16:43.653Z,71.56
2023-01-18T09:19:10.202Z,71.88
2023-01-18T09:24:28.515Z,72.64
2023-01-18T09:26:54.935Z,72.63
2023-01-18T09:29:21.304Z,72.58
2023-01-18T09:31:47.767Z,72.72
2023-01-18T09:34:19.343Z,72.14
2023-01-18T09:36:46.456Z,72.45
2023-01-18T09:39:12.933Z,72.60
2023-01-18T09:41:39.405Z,72.23
2023-01-18T09:44:05.777Z,72.56
2023-01-18T09:46:39.984Z,72.33
2023-01-18T09:49:06.473Z,72.09
2023-01-18T09:51:33.927Z,71.86
2023-01-18T09:54:00.674Z,72.02
2023-01-18T09:56:27.162Z,71.52
2023-01-18T09:58:55.741Z,71.57
2023-01-18T10:01:22.309Z,71.24
2023-01-18T10:03:48.783Z,70.96
2023-01-18T10:06:15.260Z,71.56
2023-01-18T10:08:41.643Z,71.35
2023-01-18T10:11:10.074Z,70.29
2023-01-18T10:13:36.523Z,72.01
2023-01-18T10:16:02.975Z,73.36
2023-01-18T10:18:48.460Z,74.13
2023-01-18T10:21:14.983Z,73.51
2023-01-18T10:23:41.369Z,73.53
2023-01-18T10:26:07.746Z,73.02
2023-01-18T10:28:34.404Z,73.48
2023-01-18T10:31:00.818Z,73.65
2023-01-18T10:33:27.253Z,73.34
2023-01-18T10:35:53.688Z,73.86
2023-01-18T10:38:20.113Z,73.34
2023-01-18T10:40:47.292Z,72.35
2023-01-18T10:43:13.742Z,71.92
2023-01-18T10:45:40.261Z,72.17
2023-01-18T10:48:06.732Z,72.70
2023-01-18T10:50:33.183Z,72.45
2023-01-18T10:53:00.037Z,71.94
2023-01-18T10:55:26.767Z,73.39
2023-01-18T10:57:53.284Z,73.79
2023-01-18T11:00:19.713Z,74.77
2023-01-18T11:02:46.229Z,75.81
2023-01-18T11:05:12.772Z,74.75
2023-01-18T11:07:39.226Z,74.79
2023-01-18T11:10:05.674Z,74.54
2023-01-18T11:12:34.855Z,74.10
2023-01-18T11:15:01.298Z,73.81
2023-01-18T11:17:27.827Z,73.23
2023-01-18T11:19:54.388Z,73.41
2023-01-18T11:22:21.067Z,73.19
2023-01-18T11:24:51.774Z,72.76
2023-01-18T11:27:21.959Z,72.66
2023-01-18T11:29:48.408Z,72.60
2023-01-18T11:32:14.743Z,72.31
2023-01-18T11:34:41.739Z,72.24
2023-01-18T11:37:08.464Z,72.25
2023-01-18T11:39:37.582Z,72.01
2023-01-18T11:42:04.086Z,71.92
2023-01-18T11:44:30.517Z,71.89
2023-01-18T11:46:57.949Z,71.32
2023-01-18T11:49:24.317Z,71.85
2023-01-18T11:51:50.750Z,71.77
2023-01-18T11:54:18.154Z,71.65
2023-01-18T11:56:44.640Z,71.40
2023-01-18T11:59:17.265Z,71.05
2023-01-18T12:01:43.858Z,71.68
2023-01-18T12:04:18.144Z,71.20
2023-01-18T12:06:44.772Z,71.57
2023-01-18T12:09:11.139Z,71.11
2023-01-18T12:11:37.618Z,70.95
2023-01-18T12:14:05.079Z,71.64
2023-01-18T12:16:31.559Z,71.87
2023-01-18T12:19:04.431Z,72.72
2023-01-18T12:21:31.076Z,72.52
2023-01-18T12:23:58.251Z,73.09
2023-01-18T12:26:40.499Z,73.63
2023-01-18T12:29:06.981Z,74.57
2023-01-18T12:31:37.343Z,75.50
2023-01-18T12:34:04.267Z,75.88
2023-01-18T12:36:36.978Z,79.12
2023-01-18T12:39:03.930Z,78.69
2023-01-18T12:41:58.564Z,78.61
2023-01-18T12:44:32.470Z,78.19
2023-01-18T12:47:07.958Z,80.15
2023-01-18T12:49:59.700Z,82.67
2023-01-18T12:52:24.150Z,81.75
2023-01-18T12:54:50.596Z,83.04
2023-01-18T12:59:59.002Z,84.17
2023-01-18T13:02:33.700Z,80.98
2023-01-18T13:07:44.704Z,83.93
2023-01-18T13:10:11.173Z,83.40
2023-01-18T13:12:37.605Z,84.83
2023-01-18T13:15:14.353Z,84.81
2023-01-18T13:17:41.231Z,84.37
2023-01-18T13:20:19.545Z,86.53
2023-01-18T13:22:56.385Z,85.25
2023-01-18T13:25:27.064Z,85.64
2023-01-18T13:27:53.517Z,85.56
2023-01-18T13:33:12.977Z,86.06
2023-01-18T13:35:39.400Z,86.11
2023-01-18T13:38:05.835Z,87.19
2023-01-18T13:40:35.896Z,85.43
2023-01-18T13:43:02.277Z,85.54
2023-01-18T13:45:28.955Z,86.44
2023-01-18T13:48:01.785Z,86.16
2023-01-18T13:50:28.471Z,84.80
2023-01-18T13:52:58.278Z,85.06
2023-01-18T13:55:27.352Z,87.26
2023-01-18T13:57:54.937Z,87.73
2023-01-18T14:00:32.019Z,86.20
2023-01-18T14:05:41.588Z,86.15
2023-01-18T14:08:13.022Z,85.57
2023-01-18T14:13:23.315Z,83.37
2023-01-18T14:16:00.197Z,82.54
2023-01-18T14:21:17.039Z,84.32
2023-01-18T14:23:43.432Z,84.58
2023-01-18T14:26:12.697Z,85.28
2023-01-18T14:28:41.604Z,83.67
2023-01-18T14:31:08.080Z,84.18
2023-01-18T14:33:34.484Z,83.73
2023-01-18T14:36:01.158Z,83.12
2023-01-18T14:38:27.647Z,83.91
2023-01-18T14:40:54.109Z,82.29
2023-01-18T14:43:23.250Z,80.81
2023-01-18T14:45:49.623Z,82.17
2023-01-18T14:48:16.083Z,83.05
2023-01-18T14:50:45.176Z,81.29
2023-01-18T14:53:17.074Z,81.37
2023-01-18T14:55:53.927Z,80.36
2023-01-18T14:58:20.416Z,80.43
2023-01-18T15:00:48.860Z,79.47
2023-01-18T15:03:15.451Z,80.18
2023-01-18T15:05:42.130Z,79.31
2023-01-18T15:08:10.351Z,79.60
2023-01-18T15:10:37.030Z,79.70
2023-01-18T15:13:16.786Z,78.27
2023-01-18T15:15:43.330Z,78.21
2023-01-18T15:18:09.819Z,79.53
2023-01-18T15:20:40.329Z,78.05
2023-01-18T15:23:08.854Z,76.88
2023-01-18T15:25:35.659Z,78.67
2023-01-18T15:30:45.933Z,79.04
2023-01-18T15:33:14.029Z,77.66
2023-01-18T15:35:40.400Z,78.15
2023-01-18T15:38:07.938Z,79.34
2023-01-18T15:40:34.343Z,79.69
2023-01-18T15:45:42.033Z,78.52
2023-01-18T15:48:08.527Z,78.01
2023-01-18T15:50:34.957Z,77.83
2023-01-18T15:53:01.342Z,77.71
2023-01-18T15:55:27.848Z,76.47
2023-01-18T15:57:54.239Z,75.71
2023-01-18T16:00:20.620Z,75.25
2023-01-18T16:02:49.220Z,76.18
2023-01-18T16:05:15.680Z,77.42
2023-01-18T16:07:42.157Z,77.00
2023-01-18T16:10:08.682Z,77.10
2023-01-18T16:12:35.246Z,77.14
2023-01-18T16:15:01.621Z,77.03
2023-01-18T16:17:27.988Z,77.49
2023-01-18T16:19:54.573Z,76.20
2023-01-18T16:22:21.090Z,76.49
2023-01-18T16:24:47.481Z,75.22
2023-01-18T16:27:16.092Z,74.23
2023-01-18T16:29:43.968Z,73.22
2023-01-18T16:32:11.319Z,73.55
2023-01-18T16:34:37.737Z,74.17
2023-01-18T16:37:04.171Z,73.92
2023-01-18T16:39:32.800Z,73.06
2023-01-18T16:42:00.499Z,71.21
2023-01-18T16:44:26.915Z,71.47
2023-01-18T16:46:53.332Z,72.15
2023-01-18T16:49:19.736Z,73.27
2023-01-18T16:51:46.472Z,72.63
2023-01-18T16:54:13.253Z,73.70
2023-01-18T16:56:39.718Z,72.88
2023-01-18T16:59:06.132Z,73.26
2023-01-18T17:01:32.677Z,73.28
2023-01-18T17:03:59.179Z,74.31
2023-01-18T17:06:25.590Z,73.07
2023-01-18T17:08:52.056Z,70.41
2023-01-18T17:11:18.538Z,69.17
2023-01-18T17:13:45.258Z,72.29
2023-01-18T17:16:17.934Z,72.15
2023-01-18T17:18:44.334Z,72.58
2023-01-18T17:21:10.773Z,73.42
2023-01-18T17:23:37.269Z,72.52
2023-01-18T17:26:04.247Z,74.23
2023-01-18T17:28:30.710Z,72.15
2023-01-18T17:30:57.096Z,73.67
2023-01-18T17:33:23.555Z,71.68
2023-01-18T17:35:52.656Z,69.98
2023-01-18T17:38:24.210Z,67.85
2023-01-18T17:40:52.424Z,64.51
2023-01-18T17:43:32.137Z,64.16
2023-01-18T17:46:01.793Z,65.36
2023-01-18T17:48:28.654Z,67.79
2023-01-18T17:50:55.105Z,65.91
2023-01-18T17:53:21.569Z,64.34
2023-01-18T17:58:28.351Z,71.48
2023-01-18T18:00:54.829Z,71.48
2023-01-18T18:03:21.255Z,72.37
2023-01-18T18:05:47.885Z,71.51
2023-01-18T18:08:14.293Z,71.84
2023-01-18T18:10:40.812Z,70.80
2023-01-18T18:13:07.389Z,69.92
2023-01-18T18:15:33.840Z,62.01
2023-01-18T18:18:01.061Z,67.23
2023-01-18T18:20:27.517Z,70.17
2023-01-18T18:22:55.443Z,68.48
2023-01-18T18:25:21.826Z,62.42
2023-01-18T18:27:51.253Z,67.92
2023-01-18T18:30:17.643Z,67.74
2023-01-18T18:32:44.145Z,66.29
2023-01-18T18:35:26.643Z,65.58
2023-01-18T18:37:53.324Z,68.67
2023-01-18T18:40:19.842Z,68.86
2023-01-18T18:42:59.883Z,68.91
2023-01-18T18:45:27.077Z,71.24
2023-01-18T18:47:53.476Z,70.55
2023-01-18T18:50:19.876Z,69.10
2023-01-18T18:52:46.267Z,69.72
2023-01-18T18:55:13.193Z,70.19
2023-01-18T18:57:41.924Z,71.66
2023-01-18T19:00:08.349Z,69.73
2023-01-18T19:02:34.734Z,69.84
2023-01-18T19:05:01.269Z,69.92
2023-01-18T19:07:27.656Z,69.57
2023-01-18T19:09:54.096Z,70.20
2023-01-18T19:12:20.511Z,71.26
2023-01-18T19:14:46.910Z,71.42
2023-01-18T19:17:18.608Z,72.33
2023-01-18T19:19:51.727Z,71.90
2023-01-18T19:22:18.145Z,72.69
2023-01-18T19:24:44.601Z,72.64
2023-01-18T19:27:11.033Z,71.20
2023-01-18T19:29:37.494Z,70.48
2023-01-18T19:34:53.957Z,71.35
2023-01-18T19:37:20.336Z,69.82
2023-01-18T19:39:46.728Z,68.41
2023-01-18T19:42:13.104Z,67.03
2023-01-18T19:44:39.503Z,68.93
2023-01-18T19:47:05.889Z,69.02
2023-01-18T19:49:32.482Z,71.25
2023-01-18T19:51:58.914Z,72.06
2023-01-18T19:54:25.294Z,72.44
2023-01-18T19:56:51.727Z,71.64
2023-01-18T19:59:18.178Z,70.21
2023-01-18T20:01:44.802Z,70.85
2023-01-18T20:04:11.436Z,70.27
2023-01-18T20:06:43.724Z,69.88
2023-01-18T20:09:19.545Z,70.47
2023-01-18T20:11:47.552Z,71.70
2023-01-18T20:14:14.040Z,71.02
2023-01-18T20:16:40.586Z,68.82
2023-01-18T20:19:07.062Z,69.06
2023-01-18T20:21:33.553Z,71.22
2023-01-18T20:24:00.060Z,69.93
2023-01-18T20:26:36.503Z,69.58
2023-01-18T20:29:07.150Z,70.73
2023-01-18T20:31:33.827Z,67.69
2023-01-18T20:34:00.229Z,65.89
2023-01-18T20:36:26.606Z,69.54
2023-01-18T20:38:53.052Z,70.58
2023-01-18T20:41:23.996Z,70.79
2023-01-18T20:43:51.578Z,70.94
2023-01-18T20:49:08.095Z,69.57
2023-01-18T20:51:34.500Z,70.57
2023-01-18T20:54:00.958Z,70.88
2023-01-18T20:56:30.164Z,71.35
2023-01-18T20:58:56.612Z,70.72
2023-01-18T21:01:23.132Z,69.47
2023-01-18T21:03:49.786Z,65.21
2023-01-18T21:06:18.900Z,59.31
2023-01-18T21:08:45.245Z,55.41
2023-01-18T21:11:11.594Z,57.94
2023-01-18T21:13:38.017Z,54.64
2023-01-18T21:16:04.400Z,56.90
2023-01-18T21:18:30.824Z,52.91
2023-01-18T21:20:57.201Z,59.57
2023-01-18T21:23:23.560Z,64.06
2023-01-18T21:25:50.089Z,64.09
2023-01-18T21:28:16.469Z,65.65
2023-01-18T21:30:48.859Z,66.42
2023-01-18T21:33:19.331Z,66.78
2023-01-18T21:35:48.606Z,67.80
2023-01-18T21:38:15.014Z,67.58
2023-01-18T21:40:41.594Z,67.68
2023-01-18T21:43:10.421Z,69.00
2023-01-18T21:45:37.149Z,68.67
2023-01-18T21:48:03.594Z,69.21
2023-01-18T21:50:30.043Z,67.47
2023-01-18T21:52:56.515Z,67.32
2023-01-18T21:55:22.967Z,67.18
2023-01-18T21:57:51.834Z,67.38
2023-01-18T22:00:18.281Z,67.09
2023-01-18T22:02:44.703Z,67.31
2023-01-18T22:05:11.155Z,67.23
2023-01-18T22:07:38.192Z,66.49
2023-01-18T22:10:07.757Z,65.37
2023-01-18T22:12:36.173Z,64.08
2023-01-18T22:17:50.283Z,63.01
2023-01-18T22:20:16.714Z,62.74
2023-01-18T22:22:43.123Z,63.96
2023-01-18T22:25:09.607Z,65.45
2023-01-18T22:27:36.055Z,64.98
2023-01-18T22:30:02.688Z,64.71
2023-01-18T22:32:29.111Z,65.25
2023-01-18T22:34:55.475Z,65.74
2023-01-18T22:37:21.798Z,65.68
2023-01-18T22:39:48.184Z,66.23
2023-01-18T22:42:14.522Z,62.99
2023-01-18T22:44:40.923Z,61.94
2023-01-18T22:47:07.345Z,63.43
2023-01-18T22:49:33.906Z,63.54
2023-01-18T22:52:00.225Z,63.67
2023-01-18T22:54:26.685Z,63.26
2023-01-18T22:56:53.130Z,64.08
2023-01-18T22:59:19.494Z,63.98
2023-01-18T23:01:49.667Z,62.96
2023-01-18T23:04:16.097Z,63.41
2023-01-18T23:06:42.716Z,62.52
2023-01-18T23:09:09.366Z,60.66
2023-01-18T23:11:35.751Z,61.38
2023-01-18T23:14:02.168Z,62.14
2023-01-18T23:16:28.567Z,60.69
2023-01-18T23:18:54.934Z,62.18
2023-01-18T23:21:21.351Z,62.39
2023-01-18T23:23:47.786Z,61.06
2023-01-18T23:26:17.207Z,60.99
2023-01-18T23:28:43.615Z,62.37
2023-01-18T23:31:10.100Z,62.89
2023-01-18T23:33:36.703Z,63.04
2023-01-18T23:36:03.059Z,63.28
2023-01-18T23:38:29.446Z,63.26
2023-01-18T23:40:55.840Z,62.03
2023-01-18T23:43:22.325Z,61.91
2023-01-18T23:45:49.560Z,61.86
2023-01-18T23:48:15.928Z,61.40
2023-01-18T23:50:42.295Z,61.87
2023-01-18T23:53:11.723Z,61.11
2023-01-18T23:55:38.150Z,61.36
2023-01-18T23:58:04.592Z,61.59
